Cyclone, Texas
Current Conditions -  °F | °C
As of 6:55 PM on Saturday 20 Dec 2014 (Local Time) from KT35 Reporting Station
Overcast Overcast  
Wind Chill: 51°   Ceiling: 1400
Heat Index: 51°   Visibility: 10mi
Dew Point: 48°   Wind: 3mph
Humidity: 89%   Direction: 10°N
Pressure: 30.18"   Gusts: NA
Location:  30.9882°N, 97.103°W
Report Text: KT35 210055Z AUTO 01003KT 10SM BKN014 OVC020 11/09 A3018 RMK AO2 T01050088
Loading
Personal Weather Stations






























Interactive Weather Map New forecast layout! Learn more

10-Day Weather Forecast

Advertisements
Track Severe Weather on mobile